createdAt,value
2023-03-27T00:00:13.476Z,7.20
2023-03-27T00:02:42.156Z,7.30
2023-03-27T00:05:11.329Z,7.20
2023-03-27T00:07:41.552Z,7.30
2023-03-27T00:10:10.769Z,7.50
2023-03-27T00:12:40.256Z,7.40
2023-03-27T00:15:15.927Z,7.40
2023-03-27T00:17:46.714Z,7.40
2023-03-27T00:20:16.307Z,7.40
2023-03-27T00:22:45.425Z,7.40
2023-03-27T00:25:13.852Z,7.40
2023-03-27T00:27:42.570Z,7.50
2023-03-27T00:30:13.657Z,7.40
2023-03-27T00:32:42.182Z,7.40
2023-03-27T00:35:12.270Z,7.50
2023-03-27T00:37:40.986Z,7.50
2023-03-27T00:40:13.610Z,7.60
2023-03-27T00:42:42.155Z,7.60
2023-03-27T00:45:17.944Z,7.60
2023-03-27T00:47:47.913Z,7.50
2023-03-27T00:50:21.372Z,7.50
2023-03-27T00:52:54.819Z,7.60
2023-03-27T00:55:24.211Z,7.60
2023-03-27T00:57:56.482Z,7.80
2023-03-27T01:00:27.300Z,7.70
2023-03-27T01:02:56.364Z,7.70
2023-03-27T01:05:29.659Z,7.70
2023-03-27T01:08:00.341Z,7.20
2023-03-27T01:10:37.332Z,7.20
2023-03-27T01:13:13.786Z,7.20
2023-03-27T01:15:49.780Z,7.00
2023-03-27T01:18:33.350Z,6.80
2023-03-27T01:21:33.305Z,6.70
2023-03-27T01:24:20.263Z,6.70
2023-03-27T01:27:03.120Z,6.80
2023-03-27T01:29:42.970Z,7.00
2023-03-27T01:32:40.545Z,7.00
2023-03-27T01:35:38.440Z,7.10
2023-03-27T01:38:29.486Z,7.20
2023-03-27T01:41:06.712Z,7.10
2023-03-27T01:43:39.295Z,7.10
2023-03-27T01:46:14.181Z,7.30
2023-03-27T01:48:46.582Z,7.20
2023-03-27T01:51:20.741Z,7.10
2023-03-27T01:53:53.745Z,7.00
2023-03-27T01:56:27.592Z,7.10
2023-03-27T01:59:04.117Z,7.00
2023-03-27T02:01:37.577Z,7.00
2023-03-27T02:04:09.655Z,7.10
2023-03-27T02:06:41.829Z,7.10
2023-03-27T02:09:13.894Z,7.10
2023-03-27T02:11:48.980Z,7.30
2023-03-27T02:14:21.424Z,7.50
2023-03-27T02:16:55.045Z,7.30
2023-03-27T02:19:30.170Z,7.20
2023-03-27T02:21:58.992Z,7.10
2023-03-27T02:24:27.908Z,7.10
2023-03-27T02:27:02.187Z,6.90
2023-03-27T02:29:47.704Z,6.80
2023-03-27T02:32:27.424Z,6.90
2023-03-27T02:35:18.665Z,6.90
2023-03-27T02:37:56.690Z,7.00
2023-03-27T02:40:40.065Z,7.00
2023-03-27T02:43:14.065Z,7.00
2023-03-27T02:45:52.432Z,7.00
2023-03-27T02:48:28.689Z,7.10
2023-03-27T02:51:01.865Z,7.10
2023-03-27T02:53:34.726Z,7.20
2023-03-27T02:56:04.834Z,7.50
2023-03-27T02:58:39.899Z,7.40
2023-03-27T03:01:10.767Z,6.90
2023-03-27T03:03:42.844Z,6.60
2023-03-27T03:06:11.508Z,6.50
2023-03-27T03:08:40.627Z,6.50
2023-03-27T03:11:11.769Z,6.50
2023-03-27T03:13:42.079Z,6.50
2023-03-27T03:16:11.257Z,6.50
2023-03-27T03:18:40.055Z,6.50
2023-03-27T03:21:08.615Z,6.30
2023-03-27T03:23:37.229Z,6.30
2023-03-27T03:26:06.687Z,6.30
2023-03-27T03:28:35.929Z,6.40
2023-03-27T03:31:06.025Z,6.40
2023-03-27T03:33:34.500Z,6.40
2023-03-27T03:36:02.883Z,6.50
2023-03-27T03:38:37.674Z,6.50
2023-03-27T03:41:07.196Z,6.50
2023-03-27T03:43:35.781Z,6.60
2023-03-27T03:46:05.762Z,6.60
2023-03-27T03:48:34.532Z,6.60
2023-03-27T03:51:02.957Z,6.40
2023-03-27T03:53:31.542Z,6.40
2023-03-27T03:55:59.943Z,6.40
2023-03-27T03:58:34.761Z,6.30
2023-03-27T04:01:05.201Z,6.30
2023-03-27T04:03:34.059Z,6.40
2023-03-27T04:06:05.627Z,6.40
2023-03-27T04:08:34.985Z,6.50
2023-03-27T04:11:03.395Z,6.50
2023-03-27T04:13:32.239Z,6.50
2023-03-27T04:16:01.949Z,6.60
2023-03-27T04:18:35.152Z,6.80
2023-03-27T04:21:03.767Z,6.60
2023-03-27T04:23:32.390Z,6.70
2023-03-27T04:26:02.066Z,6.70
2023-03-27T04:28:34.835Z,6.70
2023-03-27T04:31:06.504Z,6.70
2023-03-27T04:33:39.347Z,6.80
2023-03-27T04:36:09.224Z,6.90
2023-03-27T04:38:39.229Z,6.80
2023-03-27T04:41:07.830Z,7.00
2023-03-27T04:43:37.223Z,7.10
2023-03-27T04:46:06.628Z,6.80
2023-03-27T04:48:38.568Z,6.80
2023-03-27T04:51:09.389Z,6.70
2023-03-27T04:53:38.838Z,6.80
2023-03-27T04:56:08.297Z,6.80
2023-03-27T04:58:37.629Z,6.80
2023-03-27T05:01:06.566Z,6.90
2023-03-27T05:03:36.256Z,6.90
2023-03-27T05:06:05.209Z,6.90
2023-03-27T05:08:34.062Z,6.90
2023-03-27T05:11:02.741Z,6.80
2023-03-27T05:13:31.189Z,6.60
2023-03-27T05:16:01.852Z,6.80
2023-03-27T05:18:30.912Z,6.70
2023-03-27T05:21:01.166Z,6.70
2023-03-27T05:23:29.741Z,6.50
2023-03-27T05:26:00.239Z,6.40
2023-03-27T05:28:29.444Z,6.40
2023-03-27T05:30:58.429Z,6.50
2023-03-27T05:33:27.402Z,6.50
2023-03-27T05:35:57.577Z,6.60
2023-03-27T05:38:28.737Z,6.60
2023-03-27T05:40:57.472Z,6.60
2023-03-27T05:43:26.504Z,6.60
2023-03-27T05:45:55.003Z,6.70
2023-03-27T05:48:23.784Z,6.60
2023-03-27T05:50:52.173Z,6.70
2023-03-27T05:53:20.437Z,6.70
2023-03-27T05:56:02.953Z,6.80
2023-03-27T05:58:32.335Z,6.70
2023-03-27T06:01:01.647Z,6.70
2023-03-27T06:03:31.230Z,6.60
2023-03-27T06:06:01.041Z,6.70
2023-03-27T06:08:30.037Z,6.80
2023-03-27T06:10:59.694Z,6.80
2023-03-27T06:13:28.604Z,6.80
2023-03-27T06:15:57.547Z,6.60
2023-03-27T06:18:26.325Z,6.70
2023-03-27T06:20:55.033Z,6.90
2023-03-27T06:23:24.190Z,6.90
2023-03-27T06:25:53.540Z,6.60
2023-03-27T06:28:23.498Z,6.50
2023-03-27T06:30:51.986Z,6.40
2023-03-27T06:33:20.622Z,6.50
2023-03-27T06:35:53.043Z,6.00
2023-03-27T06:38:23.566Z,6.10
2023-03-27T06:40:52.210Z,6.00
2023-03-27T06:43:22.597Z,6.10
2023-03-27T06:45:52.065Z,6.00
2023-03-27T06:48:22.593Z,5.90
2023-03-27T06:50:52.649Z,6.00
2023-03-27T06:53:27.223Z,6.00
2023-03-27T06:55:57.875Z,6.00
2023-03-27T06:58:28.560Z,6.20
2023-03-27T07:00:57.013Z,6.20
2023-03-27T07:03:25.812Z,6.20
2023-03-27T07:05:54.517Z,6.20
2023-03-27T07:08:25.268Z,6.30
2023-03-27T07:11:09.873Z,6.20
2023-03-27T07:13:42.529Z,6.40
2023-03-27T07:16:12.741Z,6.60
2023-03-27T07:18:42.085Z,6.70
2023-03-27T07:21:10.654Z,6.80
2023-03-27T07:23:39.172Z,6.90
2023-03-27T07:26:08.348Z,6.90
2023-03-27T07:28:38.714Z,7.00
2023-03-27T07:31:32.604Z,7.10
2023-03-27T07:34:03.136Z,7.10
2023-03-27T07:36:31.732Z,7.30
2023-03-27T07:39:00.438Z,7.20
2023-03-27T07:41:30.095Z,7.20
2023-03-27T07:43:58.629Z,7.20
2023-03-27T07:46:28.786Z,7.10
2023-03-27T07:48:57.870Z,6.90
2023-03-27T07:51:27.084Z,6.80
2023-03-27T07:53:58.699Z,7.10
2023-03-27T07:56:28.103Z,6.80
2023-03-27T07:58:56.895Z,6.70
2023-03-27T08:01:26.026Z,6.60
2023-03-27T08:03:57.181Z,6.70
2023-03-27T08:06:26.140Z,6.60
2023-03-27T08:08:54.628Z,6.40
2023-03-27T08:11:30.171Z,6.50
2023-03-27T08:13:59.663Z,6.50
2023-03-27T08:16:30.075Z,6.60
2023-03-27T08:19:01.373Z,6.80
2023-03-27T08:21:33.325Z,7.00
2023-03-27T08:24:04.403Z,6.90
2023-03-27T08:26:33.448Z,6.50
2023-03-27T08:29:01.924Z,6.70
2023-03-27T08:31:31.499Z,6.70
2023-03-27T08:34:01.465Z,6.90
2023-03-27T08:36:32.021Z,6.90
2023-03-27T08:39:02.811Z,6.80
2023-03-27T08:41:38.560Z,7.20
2023-03-27T08:44:13.391Z,8.00
2023-03-27T08:46:46.922Z,7.70
2023-03-27T08:49:18.681Z,7.40
2023-03-27T08:51:50.535Z,7.50
2023-03-27T08:54:21.563Z,7.50
2023-03-27T08:56:51.034Z,7.90
2023-03-27T08:59:21.647Z,7.70
2023-03-27T09:01:59.214Z,7.50
2023-03-27T09:04:37.744Z,7.50
2023-03-27T09:07:09.452Z,7.50
2023-03-27T09:09:47.741Z,7.80
2023-03-27T09:12:38.915Z,7.30
2023-03-27T09:15:13.207Z,7.50
2023-03-27T09:17:46.870Z,8.00
2023-03-27T09:20:20.449Z,7.90
2023-03-27T09:22:53.706Z,7.90
2023-03-27T09:25:28.407Z,8.00
2023-03-27T09:27:57.026Z,8.10
2023-03-27T09:30:28.146Z,8.00
2023-03-27T09:33:00.346Z,8.20
2023-03-27T09:35:30.399Z,8.10
2023-03-27T09:38:03.958Z,8.20
2023-03-27T09:40:37.868Z,8.10
2023-03-27T09:43:13.363Z,8.30
2023-03-27T09:45:42.011Z,8.20
2023-03-27T09:48:16.635Z,8.20
2023-03-27T09:50:49.283Z,8.20
2023-03-27T09:53:21.100Z,8.20
2023-03-27T09:55:52.941Z,8.30
2023-03-27T09:58:33.761Z,8.30
2023-03-27T10:01:15.708Z,8.60
2023-03-27T10:03:52.071Z,8.80
2023-03-27T10:06:29.497Z,8.60
2023-03-27T10:09:01.340Z,8.40
2023-03-27T10:11:33.719Z,8.70
2023-03-27T10:14:03.606Z,8.80
2023-03-27T10:16:41.543Z,8.50
2023-03-27T10:19:22.144Z,8.60
2023-03-27T10:21:52.200Z,8.20
2023-03-27T10:24:27.888Z,7.90
2023-03-27T10:26:57.283Z,8.00
2023-03-27T10:29:28.537Z,7.90
2023-03-27T10:31:59.702Z,7.60
2023-03-27T10:34:33.984Z,7.60
2023-03-27T10:37:05.766Z,7.30
2023-03-27T10:39:36.509Z,7.00
2023-03-27T10:42:09.236Z,7.20
2023-03-27T10:44:39.633Z,7.30
2023-03-27T10:47:17.977Z,7.40
2023-03-27T10:49:53.876Z,7.80
2023-03-27T10:52:26.791Z,8.10
2023-03-27T10:55:08.722Z,8.20
2023-03-27T10:57:38.160Z,8.10
2023-03-27T11:00:18.654Z,7.80
2023-03-27T11:02:50.584Z,7.80
2023-03-27T11:05:23.590Z,7.80
2023-03-27T11:07:58.452Z,7.40
2023-03-27T11:10:32.422Z,7.60
2023-03-27T11:13:05.472Z,8.80
2023-03-27T11:15:42.369Z,8.90
2023-03-27T11:18:16.619Z,10.10
2023-03-27T11:20:50.823Z,9.90
2023-03-27T11:23:28.576Z,10.60
2023-03-27T11:25:59.981Z,9.60
2023-03-27T11:28:36.828Z,9.10
2023-03-27T11:31:13.548Z,8.60
2023-03-27T11:33:47.199Z,8.80
2023-03-27T11:36:39.775Z,8.70
2023-03-27T11:39:19.506Z,8.80
2023-03-27T11:41:52.460Z,8.70
2023-03-27T11:44:21.546Z,8.90
2023-03-27T11:47:25.688Z,9.00
2023-03-27T11:50:11.396Z,9.10
2023-03-27T11:52:52.173Z,8.90
2023-03-27T11:55:32.653Z,8.80
2023-03-27T11:58:18.669Z,9.00
2023-03-27T12:00:55.283Z,8.90
2023-03-27T12:03:49.080Z,9.10
2023-03-27T12:06:23.200Z,9.10
2023-03-27T12:09:10.360Z,8.90
2023-03-27T12:11:46.099Z,8.60
2023-03-27T12:14:47.873Z,8.50
2023-03-27T12:17:33.359Z,8.50
2023-03-27T12:20:28.572Z,8.30
2023-03-27T12:23:04.353Z,8.00
2023-03-27T12:25:56.663Z,7.80
2023-03-27T12:28:42.467Z,8.50
2023-03-27T12:31:27.160Z,8.10
2023-03-27T12:34:02.541Z,8.10
2023-03-27T12:36:37.557Z,8.10
2023-03-27T12:39:16.228Z,8.10
2023-03-27T12:41:45.994Z,8.10
2023-03-27T12:44:18.521Z,8.10
2023-03-27T12:47:09.078Z,8.40
2023-03-27T12:49:47.744Z,8.30
2023-03-27T12:52:19.417Z,8.10
2023-03-27T12:55:29.688Z,8.30
2023-03-27T12:57:59.233Z,8.50
2023-03-27T13:00:30.121Z,8.50
2023-03-27T13:03:37.321Z,8.80
2023-03-27T13:06:20.552Z,8.30
2023-03-27T13:09:10.717Z,8.30
2023-03-27T13:11:49.532Z,8.40
2023-03-27T13:14:56.372Z,8.40
2023-03-27T13:17:45.466Z,8.30
2023-03-27T13:20:23.973Z,8.70
2023-03-27T13:23:08.347Z,8.50
2023-03-27T13:25:56.197Z,8.60
2023-03-27T13:28:34.485Z,8.70
2023-03-27T13:31:04.616Z,8.70
2023-03-27T13:33:48.790Z,8.50
2023-03-27T13:36:20.028Z,8.40
2023-03-27T13:39:18.385Z,8.70
2023-03-27T13:42:06.776Z,8.50
2023-03-27T13:44:56.379Z,8.80
2023-03-27T13:47:53.505Z,8.90
2023-03-27T13:50:57.860Z,8.90
2023-03-27T13:53:35.547Z,8.80
2023-03-27T13:56:27.816Z,9.00
2023-03-27T13:59:30.662Z,8.90
2023-03-27T14:02:14.089Z,9.10
2023-03-27T14:05:05.080Z,9.80
2023-03-27T14:07:59.759Z,9.20
2023-03-27T14:10:50.574Z,8.60
2023-03-27T14:13:32.975Z,8.80
2023-03-27T14:16:24.281Z,8.50
2023-03-27T14:19:18.624Z,8.90
2023-03-27T14:21:54.128Z,8.80
2023-03-27T14:24:30.475Z,8.50
2023-03-27T14:27:02.318Z,8.80
2023-03-27T14:29:32.528Z,9.00
2023-03-27T14:32:04.939Z,9.60
2023-03-27T14:34:43.820Z,9.80
2023-03-27T14:37:30.069Z,9.70
2023-03-27T14:40:00.666Z,9.00
2023-03-27T14:42:33.126Z,9.10
2023-03-27T14:45:20.508Z,8.80
2023-03-27T14:47:51.136Z,8.80
2023-03-27T14:50:19.960Z,8.80
2023-03-27T14:52:53.332Z,8.90
2023-03-27T14:55:25.799Z,8.70
2023-03-27T14:57:59.086Z,8.90
2023-03-27T15:00:31.109Z,8.80
2023-03-27T15:03:05.535Z,9.30
2023-03-27T15:05:34.061Z,9.20
2023-03-27T15:08:02.701Z,8.90
2023-03-27T15:10:33.050Z,8.90
2023-03-27T15:13:02.705Z,8.80
2023-03-27T15:15:39.660Z,8.90
2023-03-27T15:18:15.349Z,8.80
2023-03-27T15:20:44.974Z,8.80
2023-03-27T15:23:19.020Z,8.80
2023-03-27T15:25:56.787Z,8.90
2023-03-27T15:28:34.307Z,8.80
2023-03-27T15:31:04.786Z,8.80
2023-03-27T15:33:38.476Z,8.80
2023-03-27T15:36:11.492Z,8.90
2023-03-27T15:38:41.119Z,8.80
2023-03-27T15:41:38.847Z,8.90
2023-03-27T15:44:12.504Z,8.80
2023-03-27T15:46:51.323Z,8.70
2023-03-27T15:49:29.442Z,8.60
2023-03-27T15:51:58.833Z,8.60
2023-03-27T15:54:33.191Z,8.80
2023-03-27T15:57:09.956Z,8.80
2023-03-27T15:59:52.354Z,8.80
2023-03-27T16:02:22.775Z,8.70
2023-03-27T16:04:54.401Z,8.70
2023-03-27T16:07:26.180Z,8.80
2023-03-27T16:09:57.026Z,8.60
2023-03-27T16:12:31.866Z,8.60
2023-03-27T16:15:05.749Z,8.80
2023-03-27T16:17:40.675Z,8.70
2023-03-27T16:20:37.306Z,8.70
2023-03-27T16:23:06.318Z,8.60
2023-03-27T16:25:35.253Z,8.60
2023-03-27T16:28:04.151Z,8.90
2023-03-27T16:30:36.383Z,8.80
2023-03-27T16:33:15.248Z,8.70
2023-03-27T16:35:45.341Z,8.60
2023-03-27T16:38:14.392Z,8.40
2023-03-27T16:40:43.047Z,8.30
2023-03-27T16:43:14.908Z,8.20
2023-03-27T16:45:44.907Z,8.20
2023-03-27T16:48:14.451Z,8.20
2023-03-27T16:50:43.019Z,8.20
2023-03-27T16:53:11.402Z,8.20
2023-03-27T16:55:39.843Z,8.20
2023-03-27T16:58:08.501Z,8.20
2023-03-27T17:00:37.165Z,8.10
2023-03-27T17:03:07.563Z,8.20
2023-03-27T17:05:36.153Z,8.00
2023-03-27T17:08:07.312Z,8.10
2023-03-27T17:10:36.030Z,8.10
2023-03-27T17:13:04.848Z,8.00
2023-03-27T17:15:36.903Z,8.10
2023-03-27T17:18:07.546Z,7.90
2023-03-27T17:20:36.243Z,8.00
2023-03-27T17:23:04.652Z,8.10
2023-03-27T17:25:33.025Z,7.80
2023-03-27T17:28:01.406Z,7.70
2023-03-27T17:30:39.511Z,7.70
2023-03-27T17:33:11.508Z,7.70
2023-03-27T17:35:40.705Z,7.70
2023-03-27T17:38:10.269Z,7.60
2023-03-27T17:40:41.359Z,7.70
2023-03-27T17:43:09.703Z,7.60
2023-03-27T17:45:42.720Z,7.60
2023-03-27T17:48:13.348Z,7.70
2023-03-27T17:50:41.767Z,7.80
2023-03-27T17:53:10.352Z,7.80
2023-03-27T17:55:39.133Z,7.80
2023-03-27T17:58:10.073Z,7.80
2023-03-27T18:00:39.653Z,7.70
2023-03-27T18:03:09.029Z,7.60
2023-03-27T18:05:39.677Z,7.60
2023-03-27T18:08:09.440Z,7.60
2023-03-27T18:10:38.132Z,7.50
2023-03-27T18:13:07.539Z,7.70
2023-03-27T18:15:35.983Z,7.60
2023-03-27T18:18:04.688Z,7.60
2023-03-27T18:20:33.217Z,7.60
2023-03-27T18:23:03.073Z,7.60
2023-03-27T18:25:31.647Z,7.60
2023-03-27T18:28:00.197Z,7.50
2023-03-27T18:30:30.432Z,7.50
2023-03-27T18:33:00.501Z,7.40
2023-03-27T18:35:29.042Z,7.50
2023-03-27T18:37:57.851Z,7.40
2023-03-27T18:40:27.635Z,7.50
2023-03-27T18:42:56.083Z,7.40
2023-03-27T18:45:24.752Z,7.40
2023-03-27T18:47:53.685Z,7.40
2023-03-27T18:50:22.140Z,7.30
2023-03-27T18:52:50.555Z,7.30
2023-03-27T18:55:19.079Z,7.30
2023-03-27T18:57:49.023Z,7.30
2023-03-27T19:00:20.648Z,7.20
2023-03-27T19:02:49.474Z,7.20
2023-03-27T19:05:18.241Z,7.20
2023-03-27T19:07:47.170Z,7.20
2023-03-27T19:10:15.678Z,7.20
2023-03-27T19:12:43.972Z,7.20
2023-03-27T19:17:47.945Z,7.30
2023-03-27T19:20:16.731Z,7.30
2023-03-27T19:22:45.065Z,7.30
2023-03-27T19:25:13.828Z,7.10
2023-03-27T19:27:42.452Z,7.00
2023-03-27T19:30:12.379Z,7.10
2023-03-27T19:32:42.356Z,7.10
2023-03-27T19:35:11.523Z,7.10
2023-03-27T19:37:40.670Z,7.10
2023-03-27T19:40:10.600Z,7.10
2023-03-27T19:42:39.045Z,7.10
2023-03-27T19:45:08.755Z,7.10
2023-03-27T19:47:37.964Z,6.90
2023-03-27T19:50:09.709Z,6.90
2023-03-27T19:52:38.164Z,7.00
2023-03-27T19:55:07.098Z,7.00
2023-03-27T19:57:35.831Z,6.90
2023-03-27T20:00:09.451Z,6.70
2023-03-27T20:02:38.149Z,6.70
2023-03-27T20:05:08.997Z,6.70
2023-03-27T20:07:37.667Z,6.70
2023-03-27T20:10:06.963Z,6.70
2023-03-27T20:12:35.471Z,6.70
2023-03-27T20:15:11.532Z,6.60
2023-03-27T20:17:41.200Z,6.60
2023-03-27T20:20:12.341Z,6.70
2023-03-27T20:22:56.909Z,6.50
2023-03-27T20:25:28.388Z,6.50
2023-03-27T20:27:57.106Z,6.50
2023-03-27T20:30:25.609Z,6.40
2023-03-27T20:32:54.138Z,6.40
2023-03-27T20:35:25.177Z,6.40
2023-03-27T20:37:57.808Z,6.30
2023-03-27T20:40:27.202Z,6.30
2023-03-27T20:43:04.237Z,6.30
2023-03-27T20:45:32.638Z,6.20
2023-03-27T20:48:03.966Z,6.20
2023-03-27T20:50:35.096Z,6.30
2023-03-27T20:53:04.965Z,6.20
2023-03-27T20:55:39.331Z,6.10
2023-03-27T20:58:10.841Z,6.10
2023-03-27T21:00:39.458Z,6.00
2023-03-27T21:03:08.311Z,5.90
2023-03-27T21:05:38.566Z,5.80
2023-03-27T21:08:07.691Z,5.70
2023-03-27T21:10:36.659Z,5.50
2023-03-27T21:13:05.611Z,5.50
2023-03-27T21:15:34.514Z,5.40
2023-03-27T21:18:03.295Z,5.40
2023-03-27T21:20:32.720Z,5.30
2023-03-27T21:23:04.693Z,5.30
2023-03-27T21:25:35.001Z,5.40
2023-03-27T21:28:03.458Z,5.30
2023-03-27T21:30:46.270Z,5.30
2023-03-27T21:33:17.391Z,5.20
2023-03-27T21:35:47.533Z,5.10
2023-03-27T21:38:18.374Z,5.10
2023-03-27T21:40:47.796Z,5.00
2023-03-27T21:43:16.554Z,5.10
2023-03-27T21:45:46.624Z,5.20
2023-03-27T21:48:15.838Z,5.20
2023-03-27T21:50:44.350Z,5.10
2023-03-27T21:53:13.647Z,5.00
2023-03-27T21:55:43.623Z,4.90
2023-03-27T21:58:12.326Z,4.80
2023-03-27T22:00:40.902Z,4.60
2023-03-27T22:03:09.387Z,4.60
2023-03-27T22:05:38.631Z,4.60
2023-03-27T22:08:07.218Z,4.50
2023-03-27T22:10:36.206Z,4.50
2023-03-27T22:13:06.657Z,4.50
2023-03-27T22:15:35.354Z,4.50
2023-03-27T22:18:04.272Z,4.40
2023-03-27T22:20:32.658Z,4.50
2023-03-27T22:23:01.090Z,4.50
2023-03-27T22:25:29.534Z,4.40
2023-03-27T22:28:00.039Z,4.40
2023-03-27T22:30:31.606Z,4.40
2023-03-27T22:33:00.132Z,4.40
2023-03-27T22:35:28.599Z,4.30
2023-03-27T22:37:57.568Z,4.30
2023-03-27T22:40:25.977Z,4.20
2023-03-27T22:42:54.523Z,4.20
2023-03-27T22:45:22.943Z,4.20
2023-03-27T22:47:52.862Z,4.20
2023-03-27T22:50:21.711Z,4.10
2023-03-27T22:52:50.131Z,4.00
2023-03-27T22:55:18.698Z,3.90
2023-03-27T22:57:47.493Z,4.00
2023-03-27T23:00:17.012Z,4.00
2023-03-27T23:02:45.383Z,4.00
2023-03-27T23:05:15.541Z,3.90
2023-03-27T23:07:44.348Z,3.90
2023-03-27T23:10:12.882Z,3.80
2023-03-27T23:12:41.964Z,3.90
2023-03-27T23:15:11.203Z,3.80
2023-03-27T23:17:39.931Z,3.80
2023-03-27T23:20:08.979Z,3.80
2023-03-27T23:22:38.937Z,3.70
2023-03-27T23:25:08.205Z,3.70
2023-03-27T23:27:36.689Z,3.80
2023-03-27T23:30:06.001Z,3.80
2023-03-27T23:32:37.610Z,3.80
2023-03-27T23:35:07.409Z,3.80
2023-03-27T23:37:36.660Z,3.80
2023-03-27T23:40:07.429Z,3.80
2023-03-27T23:42:35.904Z,3.80
2023-03-27T23:45:04.393Z,3.70
2023-03-27T23:47:33.068Z,3.70
2023-03-27T23:50:01.652Z,3.60
2023-03-27T23:52:29.969Z,3.60
2023-03-27T23:54:58.412Z,3.60
2023-03-27T23:57:28.573Z,3.60
2023-03-27T23:59:56.994Z,3.70
